sensor_id;sensor_type;location;lat;lon;timestamp;temperature;humidity
54832;DHT22;40730;53.068;6.572;2022-07-06T00:01:17;12.90;99.90
54832;DHT22;40730;53.068;6.572;2022-07-06T00:03:43;12.90;99.90
54832;DHT22;40730;53.068;6.572;2022-07-06T00:06:08;12.80;99.90
54832;DHT22;40730;53.068;6.572;2022-07-06T00:08:34;12.80;99.90
54832;DHT22;40730;53.068;6.572;2022-07-06T00:10:59;12.80;99.90
54832;DHT22;40730;53.068;6.572;2022-07-06T00:13:25;12.90;99.90
54832;DHT22;40730;53.068;6.572;2022-07-06T00:15:51;12.80;99.90
54832;DHT22;40730;53.068;6.572;2022-07-06T00:18:16;13.40;99.90
54832;DHT22;40730;53.068;6.572;2022-07-06T00:20:42;12.70;99.90
54832;DHT22;40730;53.068;6.572;2022-07-06T00:23:07;12.70;99.90
54832;DHT22;40730;53.068;6.572;2022-07-06T00:25:33;12.70;99.90
54832;DHT22;40730;53.068;6.572;2022-07-06T00:27:58;12.60;99.90
54832;DHT22;40730;53.068;6.572;2022-07-06T00:30:24;12.60;99.90
54832;DHT22;40730;53.068;6.572;2022-07-06T00:32:49;11.10;99.90
54832;DHT22;40730;53.068;6.572;2022-07-06T00:35:15;12.60;99.90
54832;DHT22;40730;53.068;6.572;2022-07-06T00:37:40;12.50;99.90
54832;DHT22;40730;53.068;6.572;2022-07-06T00:40:06;12.50;99.90
54832;DHT22;40730;53.068;6.572;2022-07-06T00:42:46;14.00;99.90
54832;DHT22;40730;53.068;6.572;2022-07-06T00:45:12;12.50;99.90
54832;DHT22;40730;53.068;6.572;2022-07-06T00:47:38;12.50;99.90
54832;DHT22;40730;53.068;6.572;2022-07-06T00:50:04;12.50;99.90
54832;DHT22;40730;53.068;6.572;2022-07-06T00:52:42;12.50;99.90
54832;DHT22;40730;53.068;6.572;2022-07-06T00:55:09;12.50;99.90
54832;DHT22;40730;53.068;6.572;2022-07-06T00:57:34;12.50;99.90
54832;DHT22;40730;53.068;6.572;2022-07-06T01:00:00;12.50;99.90
54832;DHT22;40730;53.068;6.572;2022-07-06T01:02:26;12.50;99.90
54832;DHT22;40730;53.068;6.572;2022-07-06T01:04:52;12.50;99.90
54832;DHT22;40730;53.068;6.572;2022-07-06T01:07:17;12.50;99.90
54832;DHT22;40730;53.068;6.572;2022-07-06T01:09:43;12.50;99.90
54832;DHT22;40730;53.068;6.572;2022-07-06T01:12:09;12.50;99.90
54832;DHT22;40730;53.068;6.572;2022-07-06T01:14:34;12.50;99.90
54832;DHT22;40730;53.068;6.572;2022-07-06T01:17:00;12.50;99.90
54832;DHT22;40730;53.068;6.572;2022-07-06T01:19:26;12.50;99.90
54832;DHT22;40730;53.068;6.572;2022-07-06T01:21:52;12.50;99.90
54832;DHT22;40730;53.068;6.572;2022-07-06T01:24:17;12.50;99.90
54832;DHT22;40730;53.068;6.572;2022-07-06T01:26:43;12.50;99.90
54832;DHT22;40730;53.068;6.572;2022-07-06T01:29:08;12.50;99.90
54832;DHT22;40730;53.068;6.572;2022-07-06T01:31:33;12.50;99.90
54832;DHT22;40730;53.068;6.572;2022-07-06T01:33:59;12.50;99.90
54832;DHT22;40730;53.068;6.572;2022-07-06T01:36:25;12.50;99.90
54832;DHT22;40730;53.068;6.572;2022-07-06T01:38:51;12.50;99.90
54832;DHT22;40730;53.068;6.572;2022-07-06T01:41:17;12.50;99.90
54832;DHT22;40730;53.068;6.572;2022-07-06T01:43:43;12.50;99.90
54832;DHT22;40730;53.068;6.572;2022-07-06T01:46:09;12.40;99.90
54832;DHT22;40730;53.068;6.572;2022-07-06T01:48:34;12.40;99.90
54832;DHT22;40730;53.068;6.572;2022-07-06T01:51:00;12.40;99.90
54832;DHT22;40730;53.068;6.572;2022-07-06T01:53:25;12.70;99.90
54832;DHT22;40730;53.068;6.572;2022-07-06T01:55:51;12.40;99.90
54832;DHT22;40730;53.068;6.572;2022-07-06T01:58:16;12.50;99.90
54832;DHT22;40730;53.068;6.572;2022-07-06T02:00:42;12.40;99.90
54832;DHT22;40730;53.068;6.572;2022-07-06T02:03:07;12.40;99.90
54832;DHT22;40730;53.068;6.572;2022-07-06T02:05:33;12.40;99.90
54832;DHT22;40730;53.068;6.572;2022-07-06T02:07:58;12.40;99.90
54832;DHT22;40730;53.068;6.572;2022-07-06T02:10:24;12.50;99.90
54832;DHT22;40730;53.068;6.572;2022-07-06T02:12:49;12.50;99.90
54832;DHT22;40730;53.068;6.572;2022-07-06T02:15:15;12.40;99.90
54832;DHT22;40730;53.068;6.572;2022-07-06T02:17:41;12.50;99.90
54832;DHT22;40730;53.068;6.572;2022-07-06T02:20:06;12.50;99.90
54832;DHT22;40730;53.068;6.572;2022-07-06T02:22:32;12.50;99.90
54832;DHT22;40730;53.068;6.572;2022-07-06T02:24:57;12.50;99.90
54832;DHT22;40730;53.068;6.572;2022-07-06T02:27:23;12.50;99.90
54832;DHT22;40730;53.068;6.572;2022-07-06T02:29:48;12.50;99.90
54832;DHT22;40730;53.068;6.572;2022-07-06T02:32:14;12.50;99.90
54832;DHT22;40730;53.068;6.572;2022-07-06T02:34:39;12.50;99.90
54832;DHT22;40730;53.068;6.572;2022-07-06T02:37:05;12.50;99.90
54832;DHT22;40730;53.068;6.572;2022-07-06T02:39:30;12.50;99.90
54832;DHT22;40730;53.068;6.572;2022-07-06T02:41:56;12.50;99.90
54832;DHT22;40730;53.068;6.572;2022-07-06T02:44:21;12.50;99.90
54832;DHT22;40730;53.068;6.572;2022-07-06T02:46:46;12.50;99.90
54832;DHT22;40730;53.068;6.572;2022-07-06T02:49:12;12.50;99.90
54832;DHT22;40730;53.068;6.572;2022-07-06T02:51:37;12.50;99.90
54832;DHT22;40730;53.068;6.572;2022-07-06T02:54:03;12.50;99.90
54832;DHT22;40730;53.068;6.572;2022-07-06T02:56:28;12.50;99.90
54832;DHT22;40730;53.068;6.572;2022-07-06T02:58:54;12.50;99.90
54832;DHT22;40730;53.068;6.572;2022-07-06T03:01:19;12.50;99.90
54832;DHT22;40730;53.068;6.572;2022-07-06T03:03:45;12.50;99.90
54832;DHT22;40730;53.068;6.572;2022-07-06T03:06:10;12.50;99.90
54832;DHT22;40730;53.068;6.572;2022-07-06T03:08:36;12.50;99.90
54832;DHT22;40730;53.068;6.572;2022-07-06T03:11:01;12.50;99.90
54832;DHT22;40730;53.068;6.572;2022-07-06T03:13:27;12.60;99.90
54832;DHT22;40730;53.068;6.572;2022-07-06T03:15:53;12.50;99.90
54832;DHT22;40730;53.068;6.572;2022-07-06T03:18:18;12.50;99.90
54832;DHT22;40730;53.068;6.572;2022-07-06T03:20:44;12.50;99.90
54832;DHT22;40730;53.068;6.572;2022-07-06T03:23:09;12.50;99.90
54832;DHT22;40730;53.068;6.572;2022-07-06T03:25:35;12.40;99.90
54832;DHT22;40730;53.068;6.572;2022-07-06T03:28:00;12.40;99.90
54832;DHT22;40730;53.068;6.572;2022-07-06T03:30:26;12.40;99.90
54832;DHT22;40730;53.068;6.572;2022-07-06T03:32:51;12.40;99.90
54832;DHT22;40730;53.068;6.572;2022-07-06T03:35:17;12.40;99.90
54832;DHT22;40730;53.068;6.572;2022-07-06T03:37:42;12.30;99.90
54832;DHT22;40730;53.068;6.572;2022-07-06T03:40:08;12.30;99.90
54832;DHT22;40730;53.068;6.572;2022-07-06T03:42:33;12.20;99.90
54832;DHT22;40730;53.068;6.572;2022-07-06T03:44:59;12.20;99.90
54832;DHT22;40730;53.068;6.572;2022-07-06T03:47:24;12.10;99.90
54832;DHT22;40730;53.068;6.572;2022-07-06T03:49:50;12.00;99.90
54832;DHT22;40730;53.068;6.572;2022-07-06T03:52:15;12.00;99.90
54832;DHT22;40730;53.068;6.572;2022-07-06T03:54:41;11.90;99.90
54832;DHT22;40730;53.068;6.572;2022-07-06T03:57:06;11.80;99.90
54832;DHT22;40730;53.068;6.572;2022-07-06T03:59:32;11.70;99.90
54832;DHT22;40730;53.068;6.572;2022-07-06T04:01:57;11.70;99.90
54832;DHT22;40730;53.068;6.572;2022-07-06T04:04:23;11.60;99.90
54832;DHT22;40730;53.068;6.572;2022-07-06T04:06:48;11.50;99.90
54832;DHT22;40730;53.068;6.572;2022-07-06T04:09:13;11.50;99.90
54832;DHT22;40730;53.068;6.572;2022-07-06T04:11:39;11.40;99.90
54832;DHT22;40730;53.068;6.572;2022-07-06T04:14:04;11.50;99.90
54832;DHT22;40730;53.068;6.572;2022-07-06T04:16:30;11.50;99.90
54832;DHT22;40730;53.068;6.572;2022-07-06T04:18:55;11.50;99.90
54832;DHT22;40730;53.068;6.572;2022-07-06T04:21:21;11.70;99.90
54832;DHT22;40730;53.068;6.572;2022-07-06T04:23:46;11.90;99.90
54832;DHT22;40730;53.068;6.572;2022-07-06T04:26:12;12.00;99.90
54832;DHT22;40730;53.068;6.572;2022-07-06T04:28:37;12.20;99.90
54832;DHT22;40730;53.068;6.572;2022-07-06T04:31:03;12.20;99.90
54832;DHT22;40730;53.068;6.572;2022-07-06T04:33:28;12.30;99.90
54832;DHT22;40730;53.068;6.572;2022-07-06T04:35:54;12.30;99.90
54832;DHT22;40730;53.068;6.572;2022-07-06T04:38:19;12.40;99.90
54832;DHT22;40730;53.068;6.572;2022-07-06T04:40:45;12.50;99.90
54832;DHT22;40730;53.068;6.572;2022-07-06T04:43:13;12.40;99.90
54832;DHT22;40730;53.068;6.572;2022-07-06T04:45:38;12.50;99.90
54832;DHT22;40730;53.068;6.572;2022-07-06T04:48:04;12.50;99.90
54832;DHT22;40730;53.068;6.572;2022-07-06T04:50:29;12.50;99.90
54832;DHT22;40730;53.068;6.572;2022-07-06T04:52:55;12.50;99.90
54832;DHT22;40730;53.068;6.572;2022-07-06T04:55:20;12.60;99.90
54832;DHT22;40730;53.068;6.572;2022-07-06T04:57:46;12.60;99.90
54832;DHT22;40730;53.068;6.572;2022-07-06T05:00:12;12.70;99.90
54832;DHT22;40730;53.068;6.572;2022-07-06T05:02:37;12.70;99.90
54832;DHT22;40730;53.068;6.572;2022-07-06T05:05:03;12.80;99.90
54832;DHT22;40730;53.068;6.572;2022-07-06T05:07:29;12.90;99.90
54832;DHT22;40730;53.068;6.572;2022-07-06T05:09:58;12.90;99.90
54832;DHT22;40730;53.068;6.572;2022-07-06T05:12:23;13.00;99.90
54832;DHT22;40730;53.068;6.572;2022-07-06T05:14:49;13.00;99.90
54832;DHT22;40730;53.068;6.572;2022-07-06T05:17:14;13.10;99.90
54832;DHT22;40730;53.068;6.572;2022-07-06T05:19:40;13.10;99.90
54832;DHT22;40730;53.068;6.572;2022-07-06T05:22:05;13.20;99.90
54832;DHT22;40730;53.068;6.572;2022-07-06T05:24:31;13.30;99.90
54832;DHT22;40730;53.068;6.572;2022-07-06T05:26:56;13.30;99.90
54832;DHT22;40730;53.068;6.572;2022-07-06T05:29:22;13.40;99.90
54832;DHT22;40730;53.068;6.572;2022-07-06T05:31:47;13.40;99.90
54832;DHT22;40730;53.068;6.572;2022-07-06T05:34:13;13.50;99.90
54832;DHT22;40730;53.068;6.572;2022-07-06T05:36:38;13.50;99.90
54832;DHT22;40730;53.068;6.572;2022-07-06T05:39:04;13.50;99.90
54832;DHT22;40730;53.068;6.572;2022-07-06T05:41:29;13.50;99.90
54832;DHT22;40730;53.068;6.572;2022-07-06T05:43:55;13.50;99.90
54832;DHT22;40730;53.068;6.572;2022-07-06T05:46:20;13.50;99.90
54832;DHT22;40730;53.068;6.572;2022-07-06T05:48:45;13.50;99.90
54832;DHT22;40730;53.068;6.572;2022-07-06T05:51:30;13.50;99.90
54832;DHT22;40730;53.068;6.572;2022-07-06T05:53:55;13.50;99.90
54832;DHT22;40730;53.068;6.572;2022-07-06T05:56:21;13.50;99.90
54832;DHT22;40730;53.068;6.572;2022-07-06T05:58:46;13.50;99.90
54832;DHT22;40730;53.068;6.572;2022-07-06T06:01:11;13.40;99.90
54832;DHT22;40730;53.068;6.572;2022-07-06T06:03:37;13.40;99.90
54832;DHT22;40730;53.068;6.572;2022-07-06T06:06:02;13.40;99.90
54832;DHT22;40730;53.068;6.572;2022-07-06T06:08:28;13.50;99.90
54832;DHT22;40730;53.068;6.572;2022-07-06T06:10:53;13.50;99.90
54832;DHT22;40730;53.068;6.572;2022-07-06T06:13:19;13.60;99.90
54832;DHT22;40730;53.068;6.572;2022-07-06T06:15:44;13.70;99.90
54832;DHT22;40730;53.068;6.572;2022-07-06T06:18:10;13.80;99.90
54832;DHT22;40730;53.068;6.572;2022-07-06T06:20:36;13.90;99.90
54832;DHT22;40730;53.068;6.572;2022-07-06T06:23:02;14.00;99.90
54832;DHT22;40730;53.068;6.572;2022-07-06T06:27:58;14.10;99.90
54832;DHT22;40730;53.068;6.572;2022-07-06T06:30:24;14.30;99.90
54832;DHT22;40730;53.068;6.572;2022-07-06T06:32:49;14.30;99.90
54832;DHT22;40730;53.068;6.572;2022-07-06T06:35:15;14.40;99.90
54832;DHT22;40730;53.068;6.572;2022-07-06T06:37:40;14.40;99.90
54832;DHT22;40730;53.068;6.572;2022-07-06T06:40:07;14.60;99.90
54832;DHT22;40730;53.068;6.572;2022-07-06T06:42:35;14.60;99.90
54832;DHT22;40730;53.068;6.572;2022-07-06T06:45:01;14.60;99.90
54832;DHT22;40730;53.068;6.572;2022-07-06T06:47:26;14.70;99.90
54832;DHT22;40730;53.068;6.572;2022-07-06T06:49:52;14.70;99.90
54832;DHT22;40730;53.068;6.572;2022-07-06T06:52:17;14.80;99.90
54832;DHT22;40730;53.068;6.572;2022-07-06T06:54:43;14.80;99.90
54832;DHT22;40730;53.068;6.572;2022-07-06T06:57:08;14.90;99.90
54832;DHT22;40730;53.068;6.572;2022-07-06T06:59:34;15.00;99.90
54832;DHT22;40730;53.068;6.572;2022-07-06T07:01:59;15.10;99.90
54832;DHT22;40730;53.068;6.572;2022-07-06T07:04:24;15.10;99.90
54832;DHT22;40730;53.068;6.572;2022-07-06T07:06:50;15.20;99.90
54832;DHT22;40730;53.068;6.572;2022-07-06T07:09:15;15.30;99.90
54832;DHT22;40730;53.068;6.572;2022-07-06T07:11:41;15.40;99.90
54832;DHT22;40730;53.068;6.572;2022-07-06T07:14:06;15.60;99.90
54832;DHT22;40730;53.068;6.572;2022-07-06T07:16:32;15.70;99.90
54832;DHT22;40730;53.068;6.572;2022-07-06T07:18:58;15.80;99.90
54832;DHT22;40730;53.068;6.572;2022-07-06T07:21:23;16.10;99.90
54832;DHT22;40730;53.068;6.572;2022-07-06T07:23:49;16.30;99.90
54832;DHT22;40730;53.068;6.572;2022-07-06T07:26:16;16.50;99.90
54832;DHT22;40730;53.068;6.572;2022-07-06T07:28:41;16.70;99.90
54832;DHT22;40730;53.068;6.572;2022-07-06T07:31:07;16.70;99.90
54832;DHT22;40730;53.068;6.572;2022-07-06T07:33:32;16.80;99.90
54832;DHT22;40730;53.068;6.572;2022-07-06T07:35:58;16.90;99.90
54832;DHT22;40730;53.068;6.572;2022-07-06T07:38:23;16.90;99.90
54832;DHT22;40730;53.068;6.572;2022-07-06T07:40:48;17.10;99.90
54832;DHT22;40730;53.068;6.572;2022-07-06T07:43:14;17.20;99.90
54832;DHT22;40730;53.068;6.572;2022-07-06T07:45:39;17.40;99.90
54832;DHT22;40730;53.068;6.572;2022-07-06T07:48:05;17.60;99.90
54832;DHT22;40730;53.068;6.572;2022-07-06T07:50:30;17.80;99.90
54832;DHT22;40730;53.068;6.572;2022-07-06T07:52:56;18.00;99.90
54832;DHT22;40730;53.068;6.572;2022-07-06T07:55:21;18.10;99.90
54832;DHT22;40730;53.068;6.572;2022-07-06T07:57:47;18.30;99.90
54832;DHT22;40730;53.068;6.572;2022-07-06T08:00:13;18.30;99.90
54832;DHT22;40730;53.068;6.572;2022-07-06T08:02:38;18.30;99.90
54832;DHT22;40730;53.068;6.572;2022-07-06T08:05:04;18.40;99.90
54832;DHT22;40730;53.068;6.572;2022-07-06T08:07:29;18.40;99.90
54832;DHT22;40730;53.068;6.572;2022-07-06T08:09:55;18.30;99.90
54832;DHT22;40730;53.068;6.572;2022-07-06T08:12:20;18.10;99.90
54832;DHT22;40730;53.068;6.572;2022-07-06T08:14:46;17.80;99.90
54832;DHT22;40730;53.068;6.572;2022-07-06T08:17:11;17.40;99.90
54832;DHT22;40730;53.068;6.572;2022-07-06T08:19:37;17.10;99.90
54832;DHT22;40730;53.068;6.572;2022-07-06T08:22:02;16.90;99.90
54832;DHT22;40730;53.068;6.572;2022-07-06T08:24:33;16.70;99.90
54832;DHT22;40730;53.068;6.572;2022-07-06T08:26:58;16.70;99.90
54832;DHT22;40730;53.068;6.572;2022-07-06T08:29:24;16.80;99.90
54832;DHT22;40730;53.068;6.572;2022-07-06T08:31:49;17.10;99.90
54832;DHT22;40730;53.068;6.572;2022-07-06T08:34:15;17.30;99.90
54832;DHT22;40730;53.068;6.572;2022-07-06T08:36:40;17.70;99.90
54832;DHT22;40730;53.068;6.572;2022-07-06T08:39:06;18.10;99.90
54832;DHT22;40730;53.068;6.572;2022-07-06T08:41:31;18.40;99.90
54832;DHT22;40730;53.068;6.572;2022-07-06T08:43:57;18.40;99.90
54832;DHT22;40730;53.068;6.572;2022-07-06T08:46:22;18.60;99.90
54832;DHT22;40730;53.068;6.572;2022-07-06T08:48:48;18.60;99.90
54832;DHT22;40730;53.068;6.572;2022-07-06T08:51:14;18.40;99.90
54832;DHT22;40730;53.068;6.572;2022-07-06T08:53:44;18.20;99.90
54832;DHT22;40730;53.068;6.572;2022-07-06T08:56:09;18.10;99.90
54832;DHT22;40730;53.068;6.572;2022-07-06T08:58:35;18.10;99.30
54832;DHT22;40730;53.068;6.572;2022-07-06T09:01:00;17.70;99.90
54832;DHT22;40730;53.068;6.572;2022-07-06T09:03:27;17.50;99.90
54832;DHT22;40730;53.068;6.572;2022-07-06T09:05:52;17.40;99.90
54832;DHT22;40730;53.068;6.572;2022-07-06T09:08:21;17.30;99.90
54832;DHT22;40730;53.068;6.572;2022-07-06T09:10:47;17.60;99.90
54832;DHT22;40730;53.068;6.572;2022-07-06T09:13:13;18.00;99.90
54832;DHT22;40730;53.068;6.572;2022-07-06T09:15:38;18.40;99.60
54832;DHT22;40730;53.068;6.572;2022-07-06T09:18:04;18.60;97.80
54832;DHT22;40730;53.068;6.572;2022-07-06T09:20:30;18.90;97.80
54832;DHT22;40730;53.068;6.572;2022-07-06T09:23:03;18.80;97.00
54832;DHT22;40730;53.068;6.572;2022-07-06T09:25:29;18.70;97.20
54832;DHT22;40730;53.068;6.572;2022-07-06T09:27:56;18.50;97.00
54832;DHT22;40730;53.068;6.572;2022-07-06T09:30:22;18.10;96.30
54832;DHT22;40730;53.068;6.572;2022-07-06T09:32:55;17.90;96.90
54832;DHT22;40730;53.068;6.572;2022-07-06T09:35:31;17.60;97.60
54832;DHT22;40730;53.068;6.572;2022-07-06T09:38:01;17.60;98.00
54832;DHT22;40730;53.068;6.572;2022-07-06T09:40:27;17.60;98.20
54832;DHT22;40730;53.068;6.572;2022-07-06T09:43:38;17.70;98.20
54832;DHT22;40730;53.068;6.572;2022-07-06T09:45:42;18.00;98.10
54832;DHT22;40730;53.068;6.572;2022-07-06T09:50:40;19.00;95.50
54832;DHT22;40730;53.068;6.572;2022-07-06T09:53:06;19.20;95.60
54832;DHT22;40730;53.068;6.572;2022-07-06T09:55:31;19.20;95.10
54832;DHT22;40730;53.068;6.572;2022-07-06T09:57:57;19.00;94.20
54832;DHT22;40730;53.068;6.572;2022-07-06T10:00:22;18.90;94.80
54832;DHT22;40730;53.068;6.572;2022-07-06T10:02:48;18.90;94.30
54832;DHT22;40730;53.068;6.572;2022-07-06T10:05:17;19.00;92.80
54832;DHT22;40730;53.068;6.572;2022-07-06T10:07:46;19.10;93.40
54832;DHT22;40730;53.068;6.572;2022-07-06T10:10:15;19.10;93.30
54832;DHT22;40730;53.068;6.572;2022-07-06T10:12:40;18.90;91.90
54832;DHT22;40730;53.068;6.572;2022-07-06T10:15:07;18.80;93.00
54832;DHT22;40730;53.068;6.572;2022-07-06T10:17:33;18.70;93.40
54832;DHT22;40730;53.068;6.572;2022-07-06T10:19:59;18.90;93.50
54832;DHT22;40730;53.068;6.572;2022-07-06T10:22:24;19.40;92.90
54832;DHT22;40730;53.068;6.572;2022-07-06T10:24:50;20.10;91.30
54832;DHT22;40730;53.068;6.572;2022-07-06T10:27:16;20.80;90.00
54832;DHT22;40730;53.068;6.572;2022-07-06T10:29:41;21.70;85.20
54832;DHT22;40730;53.068;6.572;2022-07-06T10:32:07;21.60;79.80
54832;DHT22;40730;53.068;6.572;2022-07-06T10:34:33;22.20;76.00
54832;DHT22;40730;53.068;6.572;2022-07-06T10:37:00;22.60;77.50
54832;DHT22;40730;53.068;6.572;2022-07-06T10:39:34;22.90;74.60
54832;DHT22;40730;53.068;6.572;2022-07-06T10:45:02;23.10;65.40
54832;DHT22;40730;53.068;6.572;2022-07-06T10:47:28;23.40;66.50
54832;DHT22;40730;53.068;6.572;2022-07-06T10:49:53;23.70;67.40
54832;DHT22;40730;53.068;6.572;2022-07-06T10:52:29;23.20;63.20
54832;DHT22;40730;53.068;6.572;2022-07-06T10:55:26;23.10;64.80
54832;DHT22;40730;53.068;6.572;2022-07-06T10:57:52;22.70;63.60
54832;DHT22;40730;53.068;6.572;2022-07-06T11:00:18;22.20;67.70
54832;DHT22;40730;53.068;6.572;2022-07-06T11:02:43;21.80;66.20
54832;DHT22;40730;53.068;6.572;2022-07-06T11:05:11;21.40;66.80
54832;DHT22;40730;53.068;6.572;2022-07-06T11:08:00;21.90;68.90
54832;DHT22;40730;53.068;6.572;2022-07-06T11:10:25;22.20;65.60
54832;DHT22;40730;53.068;6.572;2022-07-06T11:12:58;22.10;67.40
54832;DHT22;40730;53.068;6.572;2022-07-06T11:18:40;22.50;63.90
54832;DHT22;40730;53.068;6.572;2022-07-06T11:21:16;22.40;61.20
54832;DHT22;40730;53.068;6.572;2022-07-06T11:23:42;22.30;63.10
54832;DHT22;40730;53.068;6.572;2022-07-06T11:26:08;22.00;63.10
54832;DHT22;40730;53.068;6.572;2022-07-06T11:28:35;21.60;65.10
54832;DHT22;40730;53.068;6.572;2022-07-06T11:31:01;21.10;65.90
54832;DHT22;40730;53.068;6.572;2022-07-06T11:33:29;20.70;65.90
54832;DHT22;40730;53.068;6.572;2022-07-06T11:36:40;20.40;67.10
54832;DHT22;40730;53.068;6.572;2022-07-06T11:38:41;20.30;68.30
54832;DHT22;40730;53.068;6.572;2022-07-06T11:41:06;20.80;69.70
54832;DHT22;40730;53.068;6.572;2022-07-06T11:43:32;21.40;72.60
54832;DHT22;40730;53.068;6.572;2022-07-06T11:45:58;22.10;65.70
54832;DHT22;40730;53.068;6.572;2022-07-06T11:48:23;21.80;65.50
54832;DHT22;40730;53.068;6.572;2022-07-06T11:50:58;22.30;65.60
54832;DHT22;40730;53.068;6.572;2022-07-06T11:53:24;23.20;63.60
54832;DHT22;40730;53.068;6.572;2022-07-06T11:55:50;24.30;61.70
54832;DHT22;40730;53.068;6.572;2022-07-06T11:58:16;25.00;57.80
54832;DHT22;40730;53.068;6.572;2022-07-06T12:00:43;25.60;58.10
54832;DHT22;40730;53.068;6.572;2022-07-06T12:03:08;26.00;54.90
54832;DHT22;40730;53.068;6.572;2022-07-06T12:05:34;25.60;52.50
54832;DHT22;40730;53.068;6.572;2022-07-06T12:08:05;24.60;54.20
54832;DHT22;40730;53.068;6.572;2022-07-06T12:10:32;23.60;55.80
54832;DHT22;40730;53.068;6.572;2022-07-06T12:13:02;23.10;58.10
54832;DHT22;40730;53.068;6.572;2022-07-06T12:15:28;22.60;55.50
54832;DHT22;40730;53.068;6.572;2022-07-06T12:17:53;22.20;56.60
54832;DHT22;40730;53.068;6.572;2022-07-06T12:20:19;22.10;57.50
54832;DHT22;40730;53.068;6.572;2022-07-06T12:22:44;22.50;57.50
54832;DHT22;40730;53.068;6.572;2022-07-06T12:25:10;22.40;55.20
54832;DHT22;40730;53.068;6.572;2022-07-06T12:27:35;22.20;58.40
54832;DHT22;40730;53.068;6.572;2022-07-06T12:30:10;21.80;58.00
54832;DHT22;40730;53.068;6.572;2022-07-06T12:32:37;21.40;60.40
54832;DHT22;40730;53.068;6.572;2022-07-06T12:35:04;21.10;60.90
54832;DHT22;40730;53.068;6.572;2022-07-06T12:37:29;21.00;62.80
54832;DHT22;40730;53.068;6.572;2022-07-06T12:39:55;20.80;61.50
54832;DHT22;40730;53.068;6.572;2022-07-06T12:42:20;20.90;63.00
54832;DHT22;40730;53.068;6.572;2022-07-06T12:44:47;21.80;61.40
54832;DHT22;40730;53.068;6.572;2022-07-06T12:47:16;22.60;60.30
54832;DHT22;40730;53.068;6.572;2022-07-06T12:49:42;22.50;59.40
54832;DHT22;40730;53.068;6.572;2022-07-06T12:52:14;22.40;59.00
54832;DHT22;40730;53.068;6.572;2022-07-06T12:54:47;22.40;59.20
54832;DHT22;40730;53.068;6.572;2022-07-06T12:59:46;22.50;60.00
54832;DHT22;40730;53.068;6.572;2022-07-06T13:02:25;22.30;57.20
54832;DHT22;40730;53.068;6.572;2022-07-06T13:04:58;21.90;58.30
54832;DHT22;40730;53.068;6.572;2022-07-06T13:07:24;21.50;60.70
54832;DHT22;40730;53.068;6.572;2022-07-06T13:09:50;21.10;60.30
54832;DHT22;40730;53.068;6.572;2022-07-06T13:12:16;20.80;59.90
54832;DHT22;40730;53.068;6.572;2022-07-06T13:14:41;20.70;61.60
54832;DHT22;40730;53.068;6.572;2022-07-06T13:17:07;20.60;62.50
54832;DHT22;40730;53.068;6.572;2022-07-06T13:19:32;20.40;63.40
54832;DHT22;40730;53.068;6.572;2022-07-06T13:21:58;20.30;63.40
54832;DHT22;40730;53.068;6.572;2022-07-06T13:24:23;20.10;63.30
54832;DHT22;40730;53.068;6.572;2022-07-06T13:26:49;19.90;64.50
54832;DHT22;40730;53.068;6.572;2022-07-06T13:29:14;19.80;64.80
54832;DHT22;40730;53.068;6.572;2022-07-06T13:31:40;19.80;65.80
54832;DHT22;40730;53.068;6.572;2022-07-06T13:34:06;19.80;65.90
54832;DHT22;40730;53.068;6.572;2022-07-06T13:36:32;19.60;65.60
54832;DHT22;40730;53.068;6.572;2022-07-06T13:38:57;19.50;66.80
54832;DHT22;40730;53.068;6.572;2022-07-06T13:41:23;19.30;67.30
54832;DHT22;40730;53.068;6.572;2022-07-06T13:43:48;19.20;67.80
54832;DHT22;40730;53.068;6.572;2022-07-06T13:46:14;19.10;68.10
54832;DHT22;40730;53.068;6.572;2022-07-06T13:48:41;19.10;69.00
54832;DHT22;40730;53.068;6.572;2022-07-06T13:51:07;19.20;69.10
54832;DHT22;40730;53.068;6.572;2022-07-06T13:53:32;19.10;69.50
54832;DHT22;40730;53.068;6.572;2022-07-06T13:55:58;19.00;69.90
54832;DHT22;40730;53.068;6.572;2022-07-06T13:58:24;19.00;70.20
54832;DHT22;40730;53.068;6.572;2022-07-06T14:00:49;17.60;70.00
54832;DHT22;40730;53.068;6.572;2022-07-06T14:03:15;19.10;71.30
54832;DHT22;40730;53.068;6.572;2022-07-06T14:05:40;19.40;71.00
54832;DHT22;40730;53.068;6.572;2022-07-06T14:08:05;19.10;71.40
54832;DHT22;40730;53.068;6.572;2022-07-06T14:10:31;19.10;71.50
54832;DHT22;40730;53.068;6.572;2022-07-06T14:12:57;19.10;72.20
54832;DHT22;40730;53.068;6.572;2022-07-06T14:15:22;19.00;71.20
54832;DHT22;40730;53.068;6.572;2022-07-06T14:17:48;18.90;71.20
54832;DHT22;40730;53.068;6.572;2022-07-06T14:20:14;18.80;71.30
54832;DHT22;40730;53.068;6.572;2022-07-06T14:22:39;18.80;70.10
54832;DHT22;40730;53.068;6.572;2022-07-06T14:25:05;18.60;69.80
54832;DHT22;40730;53.068;6.572;2022-07-06T14:27:32;18.60;70.40
54832;DHT22;40730;53.068;6.572;2022-07-06T14:29:58;18.50;71.20
54832;DHT22;40730;53.068;6.572;2022-07-06T14:32:23;18.50;71.50
54832;DHT22;40730;53.068;6.572;2022-07-06T14:34:49;18.50;72.40
54832;DHT22;40730;53.068;6.572;2022-07-06T14:37:14;18.40;72.70
54832;DHT22;40730;53.068;6.572;2022-07-06T14:39:40;18.30;73.00
54832;DHT22;40730;53.068;6.572;2022-07-06T14:42:05;18.20;74.10
54832;DHT22;40730;53.068;6.572;2022-07-06T14:44:31;18.10;74.80
54832;DHT22;40730;53.068;6.572;2022-07-06T14:46:56;18.10;75.70
54832;DHT22;40730;53.068;6.572;2022-07-06T14:49:22;18.10;77.10
54832;DHT22;40730;53.068;6.572;2022-07-06T14:51:47;18.00;78.00
54832;DHT22;40730;53.068;6.572;2022-07-06T14:54:13;18.10;77.70
54832;DHT22;40730;53.068;6.572;2022-07-06T14:56:39;18.70;77.80
54832;DHT22;40730;53.068;6.572;2022-07-06T14:59:04;18.20;77.00
54832;DHT22;40730;53.068;6.572;2022-07-06T15:01:30;18.20;76.10
54832;DHT22;40730;53.068;6.572;2022-07-06T15:03:55;18.20;78.50
54832;DHT22;40730;53.068;6.572;2022-07-06T15:06:20;18.30;78.10
54832;DHT22;40730;53.068;6.572;2022-07-06T15:08:46;18.30;78.50
54832;DHT22;40730;53.068;6.572;2022-07-06T15:11:12;18.20;79.80
54832;DHT22;40730;53.068;6.572;2022-07-06T15:13:37;18.10;81.10
54832;DHT22;40730;53.068;6.572;2022-07-06T15:16:03;17.90;81.60
54832;DHT22;40730;53.068;6.572;2022-07-06T15:18:29;17.80;86.40
54832;DHT22;40730;53.068;6.572;2022-07-06T15:20:54;17.60;87.30
54832;DHT22;40730;53.068;6.572;2022-07-06T15:23:20;17.50;88.30
54832;DHT22;40730;53.068;6.572;2022-07-06T15:25:45;17.40;90.40
54832;DHT22;40730;53.068;6.572;2022-07-06T15:28:11;17.50;91.30
54832;DHT22;40730;53.068;6.572;2022-07-06T15:30:38;17.40;91.30
54832;DHT22;40730;53.068;6.572;2022-07-06T15:33:04;17.40;91.10
54832;DHT22;40730;53.068;6.572;2022-07-06T15:35:29;17.50;91.10
54832;DHT22;40730;53.068;6.572;2022-07-06T15:37:55;17.50;90.60